sensor_id;sensor_type;location;lat;lon;timestamp;P1;durP1;ratioP1;P2;durP2;ratioP2
20002;SDS011;10162;41.600;23.806;2022-08-19T00:01:40;7.57;;;6.87;;
20002;SDS011;10162;41.600;23.806;2022-08-19T00:04:08;7.53;;;6.77;;
20002;SDS011;10162;41.600;23.806;2022-08-19T00:09:52;7.10;;;6.43;;
20002;SDS011;10162;41.600;23.806;2022-08-19T00:12:18;7.43;;;6.73;;
20002;SDS011;10162;41.600;23.806;2022-08-19T00:14:44;8.20;;;7.40;;
20002;SDS011;10162;41.600;23.806;2022-08-19T00:20:21;7.40;;;6.60;;
20002;SDS011;10162;41.600;23.806;2022-08-19T00:22:47;7.67;;;6.87;;
20002;SDS011;10162;41.600;23.806;2022-08-19T00:25:14;7.30;;;6.60;;
20002;SDS011;10162;41.600;23.806;2022-08-19T00:30:48;7.87;;;7.17;;
20002;SDS011;10162;41.600;23.806;2022-08-19T00:33:13;8.40;;;7.60;;
20002;SDS011;10162;41.600;23.806;2022-08-19T00:35:41;9.17;;;7.57;;
20002;SDS011;10162;41.600;23.806;2022-08-19T00:38:09;8.00;;;7.20;;
20002;SDS011;10162;41.600;23.806;2022-08-19T00:40:35;8.33;;;6.77;;
20002;SDS011;10162;41.600;23.806;2022-08-19T00:43:00;7.80;;;6.97;;
20002;SDS011;10162;41.600;23.806;2022-08-19T00:45:27;8.73;;;7.23;;
20002;SDS011;10162;41.600;23.806;2022-08-19T00:51:14;8.63;;;6.97;;
20002;SDS011;10162;41.600;23.806;2022-08-19T00:53:39;8.43;;;6.90;;
20002;SDS011;10162;41.600;23.806;2022-08-19T00:56:05;9.70;;;7.33;;
20002;SDS011;10162;41.600;23.806;2022-08-19T01:01:37;8.10;;;6.90;;
20002;SDS011;10162;41.600;23.806;2022-08-19T01:04:05;8.37;;;7.57;;
20002;SDS011;10162;41.600;23.806;2022-08-19T01:09:35;8.97;;;7.00;;
20002;SDS011;10162;41.600;23.806;2022-08-19T01:12:01;9.27;;;7.60;;
20002;SDS011;10162;41.600;23.806;2022-08-19T01:14:27;7.93;;;7.23;;
20002;SDS011;10162;41.600;23.806;2022-08-19T01:19:58;7.80;;;7.10;;
20002;SDS011;10162;41.600;23.806;2022-08-19T01:22:31;9.07;;;7.50;;
20002;SDS011;10162;41.600;23.806;2022-08-19T01:25:05;6.97;;;6.30;;
20002;SDS011;10162;41.600;23.806;2022-08-19T01:30:22;7.93;;;7.13;;
20002;SDS011;10162;41.600;23.806;2022-08-19T01:32:51;8.57;;;7.70;;
20002;SDS011;10162;41.600;23.806;2022-08-19T01:35:18;8.57;;;7.77;;
20002;SDS011;10162;41.600;23.806;2022-08-19T01:41:04;7.67;;;6.70;;
20002;SDS011;10162;41.600;23.806;2022-08-19T01:43:31;8.70;;;7.77;;
20002;SDS011;10162;41.600;23.806;2022-08-19T01:45:57;8.10;;;7.30;;
20002;SDS011;10162;41.600;23.806;2022-08-19T01:51:15;10.17;;;7.17;;
20002;SDS011;10162;41.600;23.806;2022-08-19T01:53:41;9.03;;;7.47;;
20002;SDS011;10162;41.600;23.806;2022-08-19T01:56:07;10.47;;;8.30;;
20002;SDS011;10162;41.600;23.806;2022-08-19T01:58:41;8.37;;;7.47;;
20002;SDS011;10162;41.600;23.806;2022-08-19T02:01:12;7.37;;;6.40;;
20002;SDS011;10162;41.600;23.806;2022-08-19T02:03:39;8.53;;;7.73;;
20002;SDS011;10162;41.600;23.806;2022-08-19T02:06:05;8.27;;;7.47;;
20002;SDS011;10162;41.600;23.806;2022-08-19T02:11:20;10.00;;;7.60;;
20002;SDS011;10162;41.600;23.806;2022-08-19T02:13:49;8.90;;;8.00;;
20002;SDS011;10162;41.600;23.806;2022-08-19T02:16:16;9.23;;;7.57;;
20002;SDS011;10162;41.600;23.806;2022-08-19T02:18:43;8.43;;;7.63;;
20002;SDS011;10162;41.600;23.806;2022-08-19T02:21:09;9.40;;;8.40;;
20002;SDS011;10162;41.600;23.806;2022-08-19T02:23:36;8.13;;;7.40;;
20002;SDS011;10162;41.600;23.806;2022-08-19T02:26:01;9.20;;;7.40;;
20002;SDS011;10162;41.600;23.806;2022-08-19T02:32:15;9.17;;;7.83;;
20002;SDS011;10162;41.600;23.806;2022-08-19T02:34:42;8.90;;;8.00;;
20002;SDS011;10162;41.600;23.806;2022-08-19T02:40:29;9.07;;;8.17;;
20002;SDS011;10162;41.600;23.806;2022-08-19T02:42:59;8.70;;;7.80;;
20002;SDS011;10162;41.600;23.806;2022-08-19T02:45:26;9.77;;;8.10;;
20002;SDS011;10162;41.600;23.806;2022-08-19T02:48:01;7.40;;;6.70;;
20002;SDS011;10162;41.600;23.806;2022-08-19T02:50:27;8.60;;;7.67;;
20002;SDS011;10162;41.600;23.806;2022-08-19T02:52:53;7.83;;;7.07;;
20002;SDS011;10162;41.600;23.806;2022-08-19T02:55:19;9.17;;;7.67;;
20002;SDS011;10162;41.600;23.806;2022-08-19T03:00:53;8.60;;;7.70;;
20002;SDS011;10162;41.600;23.806;2022-08-19T03:03:20;11.77;;;8.37;;
20002;SDS011;10162;41.600;23.806;2022-08-19T03:05:46;9.00;;;8.17;;
20002;SDS011;10162;41.600;23.806;2022-08-19T03:11:21;8.03;;;6.97;;
20002;SDS011;10162;41.600;23.806;2022-08-19T03:13:51;10.33;;;8.27;;
20002;SDS011;10162;41.600;23.806;2022-08-19T03:16:19;11.80;;;8.67;;
20002;SDS011;10162;41.600;23.806;2022-08-19T03:18:49;9.53;;;8.53;;
20002;SDS011;10162;41.600;23.806;2022-08-19T03:21:20;11.90;;;9.17;;
20002;SDS011;10162;41.600;23.806;2022-08-19T03:23:49;10.00;;;9.10;;
20002;SDS011;10162;41.600;23.806;2022-08-19T03:26:15;10.40;;;8.70;;
20002;SDS011;10162;41.600;23.806;2022-08-19T03:28:42;11.60;;;8.50;;
20002;SDS011;10162;41.600;23.806;2022-08-19T03:31:12;9.10;;;7.87;;
20002;SDS011;10162;41.600;23.806;2022-08-19T03:33:39;9.70;;;8.53;;
20002;SDS011;10162;41.600;23.806;2022-08-19T03:36:12;9.67;;;8.67;;
20002;SDS011;10162;41.600;23.806;2022-08-19T03:41:53;10.43;;;8.73;;
20002;SDS011;10162;41.600;23.806;2022-08-19T03:44:28;9.50;;;8.53;;
20002;SDS011;10162;41.600;23.806;2022-08-19T03:50:03;10.17;;;9.17;;
20002;SDS011;10162;41.600;23.806;2022-08-19T03:52:30;9.63;;;8.23;;
20002;SDS011;10162;41.600;23.806;2022-08-19T03:54:55;11.03;;;9.10;;
20002;SDS011;10162;41.600;23.806;2022-08-19T03:57:26;10.37;;;9.13;;
20002;SDS011;10162;41.600;23.806;2022-08-19T03:59:52;9.83;;;8.83;;
20002;SDS011;10162;41.600;23.806;2022-08-19T04:02:18;9.53;;;8.27;;
20002;SDS011;10162;41.600;23.806;2022-08-19T04:04:43;11.50;;;8.80;;
20002;SDS011;10162;41.600;23.806;2022-08-19T04:07:14;8.77;;;7.87;;
20002;SDS011;10162;41.600;23.806;2022-08-19T04:09:41;9.70;;;8.60;;
20002;SDS011;10162;41.600;23.806;2022-08-19T04:12:07;10.53;;;8.80;;
20002;SDS011;10162;41.600;23.806;2022-08-19T04:14:34;9.07;;;8.10;;
20002;SDS011;10162;41.600;23.806;2022-08-19T04:20:26;9.10;;;8.13;;
20002;SDS011;10162;41.600;23.806;2022-08-19T04:22:52;10.60;;;8.23;;
20002;SDS011;10162;41.600;23.806;2022-08-19T04:25:18;9.67;;;8.67;;
20002;SDS011;10162;41.600;23.806;2022-08-19T04:30:49;9.90;;;8.40;;
20002;SDS011;10162;41.600;23.806;2022-08-19T04:33:17;11.63;;;8.40;;
20002;SDS011;10162;41.600;23.806;2022-08-19T04:35:46;9.77;;;8.60;;
20002;SDS011;10162;41.600;23.806;2022-08-19T04:41:02;8.63;;;7.83;;
20002;SDS011;10162;41.600;23.806;2022-08-19T04:43:47;9.23;;;7.43;;
20002;SDS011;10162;41.600;23.806;2022-08-19T04:46:14;9.03;;;7.90;;
20002;SDS011;10162;41.600;23.806;2022-08-19T04:48:41;13.97;;;8.63;;
20002;SDS011;10162;41.600;23.806;2022-08-19T04:51:10;11.60;;;9.00;;
20002;SDS011;10162;41.600;23.806;2022-08-19T04:53:38;10.17;;;8.80;;
20002;SDS011;10162;41.600;23.806;2022-08-19T04:56:07;11.93;;;8.80;;
20002;SDS011;10162;41.600;23.806;2022-08-19T04:58:35;16.53;;;9.07;;
20002;SDS011;10162;41.600;23.806;2022-08-19T05:01:03;10.43;;;9.33;;
20002;SDS011;10162;41.600;23.806;2022-08-19T05:03:29;21.37;;;10.00;;
20002;SDS011;10162;41.600;23.806;2022-08-19T05:05:58;13.23;;;9.77;;
20002;SDS011;10162;41.600;23.806;2022-08-19T05:08:35;14.23;;;10.27;;
20002;SDS011;10162;41.600;23.806;2022-08-19T05:11:09;11.90;;;9.83;;
20002;SDS011;10162;41.600;23.806;2022-08-19T05:13:36;14.43;;;9.83;;
20002;SDS011;10162;41.600;23.806;2022-08-19T05:16:02;13.27;;;9.50;;
20002;SDS011;10162;41.600;23.806;2022-08-19T05:18:30;12.23;;;9.10;;
20002;SDS011;10162;41.600;23.806;2022-08-19T05:21:16;13.60;;;9.70;;
20002;SDS011;10162;41.600;23.806;2022-08-19T05:24:03;10.53;;;9.20;;
20002;SDS011;10162;41.600;23.806;2022-08-19T05:26:33;9.93;;;9.03;;
20002;SDS011;10162;41.600;23.806;2022-08-19T05:29:03;10.77;;;8.87;;
20002;SDS011;10162;41.600;23.806;2022-08-19T05:31:30;10.77;;;9.47;;
20002;SDS011;10162;41.600;23.806;2022-08-19T05:33:57;10.60;;;8.50;;
20002;SDS011;10162;41.600;23.806;2022-08-19T05:36:27;10.87;;;9.53;;
20002;SDS011;10162;41.600;23.806;2022-08-19T05:38:54;12.33;;;9.90;;
20002;SDS011;10162;41.600;23.806;2022-08-19T05:41:21;10.73;;;8.80;;
20002;SDS011;10162;41.600;23.806;2022-08-19T05:43:55;10.27;;;8.77;;
20002;SDS011;10162;41.600;23.806;2022-08-19T05:46:26;19.17;;;9.97;;
20002;SDS011;10162;41.600;23.806;2022-08-19T05:48:51;14.83;;;10.33;;
20002;SDS011;10162;41.600;23.806;2022-08-19T05:51:17;12.67;;;10.57;;
20002;SDS011;10162;41.600;23.806;2022-08-19T05:53:43;11.90;;;10.67;;
20002;SDS011;10162;41.600;23.806;2022-08-19T05:56:12;13.40;;;10.93;;
20002;SDS011;10162;41.600;23.806;2022-08-19T05:58:42;20.03;;;13.60;;
20002;SDS011;10162;41.600;23.806;2022-08-19T06:01:11;20.20;;;15.83;;
20002;SDS011;10162;41.600;23.806;2022-08-19T06:03:38;21.57;;;18.00;;
20002;SDS011;10162;41.600;23.806;2022-08-19T06:06:05;26.63;;;21.00;;
20002;SDS011;10162;41.600;23.806;2022-08-19T06:08:34;26.27;;;19.97;;
20002;SDS011;10162;41.600;23.806;2022-08-19T06:12:02;20.35;;;15.73;;
20002;SDS011;10162;41.600;23.806;2022-08-19T06:14:29;14.43;;;12.50;;
20002;SDS011;10162;41.600;23.806;2022-08-19T06:20:20;16.23;;;10.68;;
20002;SDS011;10162;41.600;23.806;2022-08-19T06:22:46;12.98;;;10.57;;
20002;SDS011;10162;41.600;23.806;2022-08-19T06:25:16;12.15;;;9.70;;
20002;SDS011;10162;41.600;23.806;2022-08-19T06:30:25;10.95;;;9.00;;
20002;SDS011;10162;41.600;23.806;2022-08-19T06:32:51;11.32;;;9.52;;
20002;SDS011;10162;41.600;23.806;2022-08-19T06:35:17;9.95;;;8.95;;
20002;SDS011;10162;41.600;23.806;2022-08-19T06:41:09;11.73;;;9.88;;
20002;SDS011;10162;41.600;23.806;2022-08-19T06:43:35;13.18;;;9.95;;
20002;SDS011;10162;41.600;23.806;2022-08-19T06:46:01;16.50;;;13.70;;
20002;SDS011;10162;41.600;23.806;2022-08-19T06:51:25;16.45;;;13.93;;
20002;SDS011;10162;41.600;23.806;2022-08-19T06:53:52;13.15;;;10.05;;
20002;SDS011;10162;41.600;23.806;2022-08-19T06:56:20;10.25;;;9.25;;
20002;SDS011;10162;41.600;23.806;2022-08-19T06:58:50;12.50;;;9.32;;
20002;SDS011;10162;41.600;23.806;2022-08-19T07:01:18;10.00;;;9.10;;
20002;SDS011;10162;41.600;23.806;2022-08-19T07:03:45;9.50;;;8.05;;
20002;SDS011;10162;41.600;23.806;2022-08-19T07:06:13;9.63;;;8.73;;
20002;SDS011;10162;41.600;23.806;2022-08-19T07:08:43;9.85;;;8.23;;
20002;SDS011;10162;41.600;23.806;2022-08-19T07:11:13;9.48;;;8.57;;
20002;SDS011;10162;41.600;23.806;2022-08-19T07:13:41;10.13;;;8.85;;
20002;SDS011;10162;41.600;23.806;2022-08-19T07:16:09;8.63;;;7.82;;
20002;SDS011;10162;41.600;23.806;2022-08-19T07:18:42;9.27;;;8.20;;
20002;SDS011;10162;41.600;23.806;2022-08-19T07:21:13;9.32;;;8.48;;
20002;SDS011;10162;41.600;23.806;2022-08-19T07:23:42;9.55;;;7.50;;
20002;SDS011;10162;41.600;23.806;2022-08-19T07:26:10;9.68;;;8.05;;
20002;SDS011;10162;41.600;23.806;2022-08-19T07:31:30;10.82;;;6.88;;
20002;SDS011;10162;41.600;23.806;2022-08-19T07:34:02;9.82;;;8.20;;
20002;SDS011;10162;41.600;23.806;2022-08-19T07:40:31;10.52;;;8.00;;
20002;SDS011;10162;41.600;23.806;2022-08-19T07:42:57;9.82;;;8.30;;
20002;SDS011;10162;41.600;23.806;2022-08-19T07:45:23;14.85;;;8.85;;
20002;SDS011;10162;41.600;23.806;2022-08-19T07:51:36;8.73;;;7.82;;
20002;SDS011;10162;41.600;23.806;2022-08-19T07:54:01;9.10;;;8.20;;
20002;SDS011;10162;41.600;23.806;2022-08-19T08:00:16;8.60;;;7.85;;
20002;SDS011;10162;41.600;23.806;2022-08-19T08:02:41;13.13;;;9.10;;
20002;SDS011;10162;41.600;23.806;2022-08-19T08:05:08;12.73;;;10.45;;
20002;SDS011;10162;41.600;23.806;2022-08-19T08:11:41;10.85;;;9.85;;
20002;SDS011;10162;41.600;23.806;2022-08-19T08:14:14;10.27;;;9.38;;
20002;SDS011;10162;41.600;23.806;2022-08-19T08:20:29;10.88;;;9.25;;
20002;SDS011;10162;41.600;23.806;2022-08-19T08:22:56;8.93;;;8.05;;
20002;SDS011;10162;41.600;23.806;2022-08-19T08:25:40;8.45;;;7.72;;
20002;SDS011;10162;41.600;23.806;2022-08-19T08:31:53;7.80;;;7.05;;
20002;SDS011;10162;41.600;23.806;2022-08-19T08:34:19;8.68;;;7.78;;
20002;SDS011;10162;41.600;23.806;2022-08-19T08:43:29;8.45;;;7.78;;
20002;SDS011;10162;41.600;23.806;2022-08-19T08:46:12;7.60;;;7.00;;
20002;SDS011;10162;41.600;23.806;2022-08-19T08:48:56;7.63;;;6.80;;
20002;SDS011;10162;41.600;23.806;2022-08-19T08:51:31;13.13;;;6.65;;
20002;SDS011;10162;41.600;23.806;2022-08-19T08:54:00;7.72;;;7.13;;
20002;SDS011;10162;41.600;23.806;2022-08-19T09:00:15;7.03;;;6.38;;
20002;SDS011;10162;41.600;23.806;2022-08-19T09:02:48;7.72;;;7.03;;
20002;SDS011;10162;41.600;23.806;2022-08-19T09:05:14;9.30;;;7.00;;
20002;SDS011;10162;41.600;23.806;2022-08-19T09:20:20;8.68;;;7.75;;
20002;SDS011;10162;41.600;23.806;2022-08-19T09:22:48;7.50;;;6.80;;
20002;SDS011;10162;41.600;23.806;2022-08-19T09:25:19;9.68;;;6.95;;
20002;SDS011;10162;41.600;23.806;2022-08-19T09:31:35;6.93;;;6.32;;
20002;SDS011;10162;41.600;23.806;2022-08-19T09:34:01;7.65;;;6.82;;
20002;SDS011;10162;41.600;23.806;2022-08-19T09:40:17;6.47;;;5.88;;
20002;SDS011;10162;41.600;23.806;2022-08-19T09:42:44;8.75;;;6.57;;
20002;SDS011;10162;41.600;23.806;2022-08-19T09:45:14;6.97;;;6.28;;
20002;SDS011;10162;41.600;23.806;2022-08-19T09:51:28;5.60;;;5.10;;
20002;SDS011;10162;41.600;23.806;2022-08-19T09:53:55;6.10;;;5.50;;
20002;SDS011;10162;41.600;23.806;2022-08-19T10:00:13;7.72;;;4.93;;
20002;SDS011;10162;41.600;23.806;2022-08-19T10:02:39;7.22;;;6.70;;
20002;SDS011;10162;41.600;23.806;2022-08-19T10:05:04;6.60;;;5.00;;
20002;SDS011;10162;41.600;23.806;2022-08-19T10:11:39;6.10;;;5.60;;
20002;SDS011;10162;41.600;23.806;2022-08-19T10:14:15;5.47;;;5.05;;
20002;SDS011;10162;41.600;23.806;2022-08-19T10:20:29;5.82;;;5.35;;
20002;SDS011;10162;41.600;23.806;2022-08-19T10:23:01;7.93;;;5.45;;
20002;SDS011;10162;41.600;23.806;2022-08-19T10:25:29;5.97;;;5.47;;
20002;SDS011;10162;41.600;23.806;2022-08-19T10:28:01;6.43;;;5.18;;
20002;SDS011;10162;41.600;23.806;2022-08-19T10:30:27;5.63;;;5.20;;
20002;SDS011;10162;41.600;23.806;2022-08-19T10:32:53;5.85;;;5.43;;
20002;SDS011;10162;41.600;23.806;2022-08-19T10:35:22;5.72;;;4.90;;
20002;SDS011;10162;41.600;23.806;2022-08-19T10:37:50;5.72;;;5.10;;
20002;SDS011;10162;41.600;23.806;2022-08-19T10:40:15;7.78;;;6.20;;
20002;SDS011;10162;41.600;23.806;2022-08-19T10:42:41;7.10;;;5.43;;
20002;SDS011;10162;41.600;23.806;2022-08-19T10:45:10;5.93;;;5.35;;
20002;SDS011;10162;41.600;23.806;2022-08-19T10:47:36;8.23;;;5.45;;
20002;SDS011;10162;41.600;23.806;2022-08-19T10:50:02;6.75;;;4.63;;
20002;SDS011;10162;41.600;23.806;2022-08-19T10:52:48;5.57;;;4.70;;
20002;SDS011;10162;41.600;23.806;2022-08-19T10:55:15;4.85;;;4.45;;
20002;SDS011;10162;41.600;23.806;2022-08-19T10:58:02;5.28;;;4.78;;
20002;SDS011;10162;41.600;23.806;2022-08-19T11:00:28;6.40;;;5.13;;
20002;SDS011;10162;41.600;23.806;2022-08-19T11:02:56;7.47;;;5.07;;
20002;SDS011;10162;41.600;23.806;2022-08-19T11:05:22;5.45;;;4.75;;
20002;SDS011;10162;41.600;23.806;2022-08-19T11:07:48;4.60;;;4.25;;
20002;SDS011;10162;41.600;23.806;2022-08-19T11:10:16;4.93;;;4.43;;
20002;SDS011;10162;41.600;23.806;2022-08-19T11:12:44;5.10;;;4.70;;
20002;SDS011;10162;41.600;23.806;2022-08-19T11:15:11;4.78;;;4.22;;
20002;SDS011;10162;41.600;23.806;2022-08-19T11:17:39;5.13;;;4.72;;
20002;SDS011;10162;41.600;23.806;2022-08-19T11:20:08;5.68;;;4.40;;
20002;SDS011;10162;41.600;23.806;2022-08-19T11:22:35;6.07;;;4.07;;
20002;SDS011;10162;41.600;23.806;2022-08-19T11:25:01;8.77;;;4.65;;
20002;SDS011;10162;41.600;23.806;2022-08-19T11:27:27;4.85;;;4.32;;
20002;SDS011;10162;41.600;23.806;2022-08-19T11:29:54;5.43;;;4.75;;
20002;SDS011;10162;41.600;23.806;2022-08-19T11:32:20;5.53;;;4.72;;
20002;SDS011;10162;41.600;23.806;2022-08-19T11:34:45;5.22;;;4.82;;
20002;SDS011;10162;41.600;23.806;2022-08-19T11:37:13;5.53;;;4.78;;
20002;SDS011;10162;41.600;23.806;2022-08-19T11:39:41;5.03;;;4.63;;
20002;SDS011;10162;41.600;23.806;2022-08-19T11:42:07;14.73;;;5.03;;
20002;SDS011;10162;41.600;23.806;2022-08-19T11:44:51;5.05;;;4.47;;
20002;SDS011;10162;41.600;23.806;2022-08-19T11:49:50;5.07;;;4.32;;
20002;SDS011;10162;41.600;23.806;2022-08-19T11:52:16;5.13;;;4.43;;
20002;SDS011;10162;41.600;23.806;2022-08-19T11:54:42;4.75;;;4.28;;
20002;SDS011;10162;41.600;23.806;2022-08-19T11:57:08;6.25;;;4.40;;
20002;SDS011;10162;41.600;23.806;2022-08-19T11:59:35;5.25;;;4.68;;
20002;SDS011;10162;41.600;23.806;2022-08-19T12:02:01;5.03;;;4.53;;
20002;SDS011;10162;41.600;23.806;2022-08-19T12:04:30;5.55;;;4.57;;
20002;SDS011;10162;41.600;23.806;2022-08-19T12:10:43;6.00;;;4.80;;
20002;SDS011;10162;41.600;23.806;2022-08-19T12:13:11;7.45;;;4.40;;
20002;SDS011;10162;41.600;23.806;2022-08-19T12:15:44;5.97;;;4.68;;
20002;SDS011;10162;41.600;23.806;2022-08-19T12:21:59;7.15;;;4.95;;
20002;SDS011;10162;41.600;23.806;2022-08-19T12:24:31;6.78;;;4.60;;
20002;SDS011;10162;41.600;23.806;2022-08-19T12:30:45;6.00;;;4.95;;
20002;SDS011;10162;41.600;23.806;2022-08-19T12:33:11;8.52;;;4.88;;
20002;SDS011;10162;41.600;23.806;2022-08-19T12:35:42;6.65;;;4.97;;
20002;SDS011;10162;41.600;23.806;2022-08-19T12:41:58;5.43;;;4.93;;
20002;SDS011;10162;41.600;23.806;2022-08-19T12:44:24;231.02;;;28.70;;
20002;SDS011;10162;41.600;23.806;2022-08-19T12:50:41;6.70;;;4.72;;
20002;SDS011;10162;41.600;23.806;2022-08-19T12:53:11;7.57;;;5.28;;
20002;SDS011;10162;41.600;23.806;2022-08-19T12:55:37;12.38;;;5.22;;
20002;SDS011;10162;41.600;23.806;2022-08-19T13:01:19;6.30;;;5.05;;
20002;SDS011;10162;41.600;23.806;2022-08-19T13:03:47;5.20;;;4.70;;
20002;SDS011;10162;41.600;23.806;2022-08-19T13:06:13;6.95;;;4.93;;
20002;SDS011;10162;41.600;23.806;2022-08-19T13:08:42;8.95;;;5.35;;
20002;SDS011;10162;41.600;23.806;2022-08-19T13:11:11;5.30;;;4.80;;
20002;SDS011;10162;41.600;23.806;2022-08-19T13:13:41;5.15;;;4.68;;
20002;SDS011;10162;41.600;23.806;2022-08-19T13:16:09;5.65;;;5.07;;
20002;SDS011;10162;41.600;23.806;2022-08-19T13:22:23;5.60;;;5.10;;
20002;SDS011;10162;41.600;23.806;2022-08-19T13:24:50;6.97;;;5.45;;
20002;SDS011;10162;41.600;23.806;2022-08-19T13:27:16;9.93;;;5.55;;
20002;SDS011;10162;41.600;23.806;2022-08-19T13:29:42;7.93;;;5.00;;
20002;SDS011;10162;41.600;23.806;2022-08-19T13:32:26;6.22;;;5.20;;
20002;SDS011;10162;41.600;23.806;2022-08-19T13:35:11;6.32;;;5.03;;
20002;SDS011;10162;41.600;23.806;2022-08-19T13:41:24;6.32;;;4.63;;
20002;SDS011;10162;41.600;23.806;2022-08-19T13:50:20;5.80;;;5.25;;
20002;SDS011;10162;41.600;23.806;2022-08-19T13:52:52;6.63;;;5.20;;
20002;SDS011;10162;41.600;23.806;2022-08-19T13:55:19;8.38;;;5.43;;
20002;SDS011;10162;41.600;23.806;2022-08-19T14:00:35;8.52;;;5.45;;
20002;SDS011;10162;41.600;23.806;2022-08-19T14:03:04;6.75;;;5.38;;
20002;SDS011;10162;41.600;23.806;2022-08-19T14:05:30;6.03;;;5.05;;
20002;SDS011;10162;41.600;23.806;2022-08-19T14:11:22;8.95;;;5.30;;
20002;SDS011;10162;41.600;23.806;2022-08-19T14:13:48;7.55;;;5.32;;
20002;SDS011;10162;41.600;23.806;2022-08-19T14:16:15;5.63;;;5.10;;
20002;SDS011;10162;41.600;23.806;2022-08-19T14:18:41;5.50;;;5.00;;
20002;SDS011;10162;41.600;23.806;2022-08-19T14:21:08;6.65;;;5.88;;
20002;SDS011;10162;41.600;23.806;2022-08-19T14:23:45;5.90;;;5.35;;
20002;SDS011;10162;41.600;23.806;2022-08-19T14:26:13;13.93;;;6.20;;
20002;SDS011;10162;41.600;23.806;2022-08-19T14:28:49;8.40;;;5.60;;
20002;SDS011;10162;41.600;23.806;2022-08-19T14:31:16;7.22;;;5.07;;
20002;SDS011;10162;41.600;23.806;2022-08-19T14:33:44;6.45;;;5.47;;
20002;SDS011;10162;41.600;23.806;2022-08-19T14:36:12;7.40;;;5.88;;
20002;SDS011;10162;41.600;23.806;2022-08-19T14:42:24;6.65;;;5.10;;
20002;SDS011;10162;41.600;23.806;2022-08-19T14:44:50;5.97;;;5.38;;
20002;SDS011;10162;41.600;23.806;2022-08-19T14:51:02;6.20;;;5.15;;
20002;SDS011;10162;41.600;23.806;2022-08-19T14:53:31;6.72;;;4.97;;
20002;SDS011;10162;41.600;23.806;2022-08-19T14:55:58;5.75;;;5.13;;
20002;SDS011;10162;41.600;23.806;2022-08-19T15:02:13;5.72;;;5.22;;
20002;SDS011;10162;41.600;23.806;2022-08-19T15:04:39;7.18;;;5.93;;
20002;SDS011;10162;41.600;23.806;2022-08-19T15:07:06;6.63;;;5.32;;
20002;SDS011;10162;41.600;23.806;2022-08-19T15:09:32;6.05;;;5.43;;
20002;SDS011;10162;41.600;23.806;2022-08-19T15:11:58;7.00;;;5.43;;
20002;SDS011;10162;41.600;23.806;2022-08-19T15:14:25;6.65;;;5.93;;
20002;SDS011;10162;41.600;23.806;2022-08-19T15:20:40;6.47;;;5.60;;
20002;SDS011;10162;41.600;23.806;2022-08-19T15:23:10;6.60;;;5.55;;
20002;SDS011;10162;41.600;23.806;2022-08-19T15:25:37;6.55;;;5.80;;
20002;SDS011;10162;41.600;23.806;2022-08-19T15:31:51;8.43;;;5.50;;
20002;SDS011;10162;41.600;23.806;2022-08-19T15:34:21;7.78;;;5.00;;
20002;SDS011;10162;41.600;23.806;2022-08-19T15:40:34;5.38;;;4.88;;
20002;SDS011;10162;41.600;23.806;2022-08-19T15:43:00;5.53;;;5.00;;
20002;SDS011;10162;41.600;23.806;2022-08-19T15:45:26;8.18;;;5.55;;
20002;SDS011;10162;41.600;23.806;2022-08-19T15:51:44;7.00;;;5.10;;
20002;SDS011;10162;41.600;23.806;2022-08-19T15:54:14;11.05;;;6.25;;
20002;SDS011;10162;41.600;23.806;2022-08-19T16:00:28;11.38;;;8.00;;
20002;SDS011;10162;41.600;23.806;2022-08-19T16:03:13;10.88;;;6.65;;
20002;SDS011;10162;41.600;23.806;2022-08-19T16:05:58;7.95;;;6.68;;
20002;SDS011;10162;41.600;23.806;2022-08-19T16:08:43;10.85;;;8.30;;
20002;SDS011;10162;41.600;23.806;2022-08-19T16:11:12;8.48;;;7.45;;
20002;SDS011;10162;41.600;23.806;2022-08-19T16:13:38;11.48;;;6.80;;
20002;SDS011;10162;41.600;23.806;2022-08-19T16:16:05;8.20;;;7.05;;
20002;SDS011;10162;41.600;23.806;2022-08-19T16:22:18;7.70;;;5.93;;
20002;SDS011;10162;41.600;23.806;2022-08-19T16:24:45;9.60;;;6.90;;
20002;SDS011;10162;41.600;23.806;2022-08-19T16:30:57;9.23;;;6.07;;
20002;SDS011;10162;41.600;23.806;2022-08-19T16:33:23;11.20;;;6.50;;
20002;SDS011;10162;41.600;23.806;2022-08-19T16:35:49;8.32;;;6.35;;
20002;SDS011;10162;41.600;23.806;2022-08-19T16:42:08;9.10;;;6.43;;
20002;SDS011;10162;41.600;23.806;2022-08-19T16:44:35;12.50;;;8.10;;
20002;SDS011;10162;41.600;23.806;2022-08-19T16:50:51;7.60;;;6.40;;
20002;SDS011;10162;41.600;23.806;2022-08-19T16:53:18;10.43;;;6.47;;
20002;SDS011;10162;41.600;23.806;2022-08-19T16:55:46;13.00;;;7.28;;
20002;SDS011;10162;41.600;23.806;2022-08-19T17:01:42;10.77;;;6.90;;
20002;SDS011;10162;41.600;23.806;2022-08-19T17:04:08;6.75;;;6.15;;
20002;SDS011;10162;41.600;23.806;2022-08-19T17:10:22;10.82;;;6.95;;
20002;SDS011;10162;41.600;23.806;2022-08-19T17:12:48;7.95;;;6.30;;
20002;SDS011;10162;41.600;23.806;2022-08-19T17:15:14;7.32;;;6.57;;
20002;SDS011;10162;41.600;23.806;2022-08-19T17:21:27;8.13;;;6.70;;
20002;SDS011;10162;41.600;23.806;2022-08-19T17:23:56;8.55;;;7.75;;
20002;SDS011;10162;41.600;23.806;2022-08-19T17:26:28;9.48;;;6.75;;
20002;SDS011;10162;41.600;23.806;2022-08-19T17:28:55;9.52;;;6.65;;
20002;SDS011;10162;41.600;23.806;2022-08-19T17:31:23;7.65;;;6.53;;
20002;SDS011;10162;41.600;23.806;2022-08-19T17:42:00;8.63;;;7.50;;
20002;SDS011;10162;41.600;23.806;2022-08-19T17:44:27;7.40;;;6.70;;
20002;SDS011;10162;41.600;23.806;2022-08-19T17:50:39;14.57;;;8.93;;
20002;SDS011;10162;41.600;23.806;2022-08-19T17:53:05;12.25;;;9.75;;
20002;SDS011;10162;41.600;23.806;2022-08-19T17:55:31;12.55;;;8.25;;
20002;SDS011;10162;41.600;23.806;2022-08-19T18:01:46;17.33;;;7.88;;
20002;SDS011;10162;41.600;23.806;2022-08-19T18:04:12;9.95;;;8.70;;
20002;SDS011;10162;41.600;23.806;2022-08-19T18:10:25;8.45;;;7.63;;
20002;SDS011;10162;41.600;23.806;2022-08-19T18:12:53;15.32;;;7.50;;
20002;SDS011;10162;41.600;23.806;2022-08-19T18:15:20;8.20;;;7.03;;
20002;SDS011;10162;41.600;23.806;2022-08-19T18:21:33;14.23;;;7.80;;
20002;SDS011;10162;41.600;23.806;2022-08-19T18:24:00;10.13;;;7.93;;
20002;SDS011;10162;41.600;23.806;2022-08-19T18:30:13;8.95;;;7.70;;
20002;SDS011;10162;41.600;23.806;2022-08-19T18:32:39;7.72;;;6.90;;
20002;SDS011;10162;41.600;23.806;2022-08-19T18:35:11;8.05;;;7.22;;
20002;SDS011;10162;41.600;23.806;2022-08-19T18:41:44;13.80;;;7.65;;
20002;SDS011;10162;41.600;23.806;2022-08-19T18:44:28;8.27;;;7.30;;
20002;SDS011;10162;41.600;23.806;2022-08-19T18:51:00;7.22;;;6.43;;
20002;SDS011;10162;41.600;23.806;2022-08-19T18:53:27;8.40;;;7.63;;
20002;SDS011;10162;41.600;23.806;2022-08-19T18:55:55;10.15;;;7.15;;
20002;SDS011;10162;41.600;23.806;2022-08-19T19:02:08;9.50;;;7.18;;
20002;SDS011;10162;41.600;23.806;2022-08-19T19:04:36;8.25;;;7.45;;
20002;SDS011;10162;41.600;23.806;2022-08-19T19:10:49;9.13;;;8.23;;
20002;SDS011;10162;41.600;23.806;2022-08-19T19:13:15;10.02;;;8.23;;
20002;SDS011;10162;41.600;23.806;2022-08-19T19:15:41;9.52;;;8.07;;
20002;SDS011;10162;41.600;23.806;2022-08-19T19:21:54;10.25;;;8.18;;
20002;SDS011;10162;41.600;23.806;2022-08-19T19:24:24;9.95;;;7.53;;
20002;SDS011;10162;41.600;23.806;2022-08-19T19:30:42;9.32;;;8.40;;
20002;SDS011;10162;41.600;23.806;2022-08-19T19:33:08;8.10;;;7.30;;
20002;SDS011;10162;41.600;23.806;2022-08-19T19:35:34;8.43;;;7.57;;
20002;SDS011;10162;41.600;23.806;2022-08-19T19:42:06;8.13;;;7.25;;